• Join FlightAware (Why Join?)
  • Login
  • US Flag 
01:17AM EDT


 

Airport Tracker/Info


-or-


 

Live Flight TrackerFlight Track Log ✈ N724AG ✈ 10-Jun-2013 ✈ KTEB - LFSB / EAP

Flight Track Log - Related Links

Times and Time Zones

All times are in EDT time to prevent confusion due to time zone crossing. See the N724AG flight status page for this flight to view local times or setup timezone preferences in your user account.

Time Position Orientation Groundspeed Altitude Reporting Facility
EDT Latitude Longitude Course Direction KTS MPH feet Rate Location/Type
07:34PM 40.8167 -74.2000 37° Northeast 231 266 3,400  Level New York TRACON
07:35PM 40.8500 -74.2667 303° West 295 339 5,800 1,260 Climbing New York TRACON
07:36PM 40.9333 -74.2333 17° North 303 349 6,000 120 Climbing New York TRACON
07:38PM 41.0553 -74.1769 19° North 302 348 6,200 1,200 Climbing Boston Center
07:39PM 41.1394 -74.1214 26° Northeast 297 342 9,400 2,400 Climbing Boston Center
07:40PM 41.2801 -73.5532 37° Northeast  Level FlightAware Approximate
07:40PM 41.1867 -74.0397 52° Northeast 306 352 11,000  Level Boston Center
07:41PM 41.2069 -73.9161 78° East 299 344 11,000  Level Boston Center
07:42PM 41.2314 -73.8064 73° East 320 368 11,000 840 Level Boston Center
07:43PM 41.2622 -73.6578 75° East 362 417 12,700 2,040 Climbing Boston Center
07:44PM 41.2928 -73.5231 73° East 375 432 15,100 1,800 Climbing Boston Center
07:45PM 41.3253 -73.3800 73° East 381 438 16,300 1,500 Climbing Boston Center
07:46PM 41.3597 -73.2394 72° East 397 457 18,100 1,800 Climbing Boston Center
07:47PM 41.4003 -73.0986 69° East 403 464 20,000 1,920 Climbing Boston Center
07:48PM 41.4614 -72.9664 58° Northeast 408 470 22,000 1,980 Climbing Boston Center
07:49PM 41.5222 -72.8228 60° Northeast 425 489 24,000 1,920 Climbing Boston Center
07:50PM 41.5625 -72.6703 71° East 425 489 25,900 1,860 Climbing Boston Center
07:51PM 41.5856 -72.5039 79° East 444 511 27,800 1,740 Climbing Boston Center
07:52PM 41.6064 -72.3319 81° East 456 525 29,400 1,200 Climbing Boston Center
07:53PM 41.6311 -72.1486 80° East 476 548 30,200 1,200 Climbing Boston Center
07:54PM 41.6575 -71.9594 79° East 502 578 31,900 1,680 Climbing Boston Center
07:55PM 41.6814 -71.7703 80° East 508 585 33,600 1,680 Climbing Boston Center
07:56PM 41.7053 -71.5808 80° East 513 590 35,300 1,500 Climbing Boston Center
07:57PM 41.7331 -71.4192 77° East 508 585 36,600 1,380 Climbing Boston Center
07:58PM 41.7542 -71.2267 82° East 508 585 38,100 1,380 Climbing Boston Center
07:59PM 41.7769 -71.0342 81° East 508 585 39,400 1,260 Climbing Boston Center
08:00PM 41.7989 -70.8222 82° East 517 595 40,700 780 Climbing Boston Center
08:01PM 41.8211 -70.6294 81° East 524 603 41,000 120 Climbing Boston Center
08:02PM 41.8469 -70.4336 80° East 524 603 41,000  Level Boston Center
08:03PM 41.8683 -70.2433 81° East 524 603 41,000  Level Boston Center
08:04PM 41.8908 -70.0108 83° East 522 601 41,000  Level Boston Center
08:05PM 41.9156 -69.8147 80° East 528 608 41,000  Level Boston Center
08:06PM 41.9300 -69.6356 84° East 528 608 41,000  Level Boston Center
08:07PM 41.9500 -69.4392 82° East 528 608 41,000  Level Boston Center
08:09PM 41.9761 -69.2478 80° East 522 601 41,000  Level Boston Center
08:10PM 42.0042 -69.0006 81° East 518 596 41,000  Level Boston Center
08:11PM 42.0253 -68.8036 82° East 518 596 41,000  Level Boston Center
08:12PM 42.0458 -68.6094 82° East 523 602 41,000  Level Boston Center
08:13PM 42.0661 -68.4125 82° East 529 609 41,000  Level Boston Center
08:14PM 42.0839 -68.2125 83° East 523 602 41,000  Level Boston Center
08:15PM 42.1033 -68.0125 82° East 528 608 41,000  Level Boston Center
08:16PM 42.1231 -67.8264 82° East 523 602 41,000  Level Boston Center
08:17PM 42.1419 -67.6317 82° East 523 602 41,000  Level Boston Center
08:18PM 42.1581 -67.4258 84° East 534 615 41,000  Level Boston Center
08:19PM 42.1761 -67.2225 83° East 543 625 41,000  Level Boston Center
08:20PM 42.1981 -67.0244 81° East 543 625 41,000  Level Boston Center
08:21PM 42.2333 -66.8167 77° East 530 610 41,000  Level Moncton Center
08:22PM 42.3000 -66.6000 67° East 530 610 41,000  Level Moncton Center
08:23PM 42.3333 -66.4333 75° East 530 610 41,000  Level Moncton Center
08:24PM 42.3833 -66.2333 71° East 540 621 41,000  Level Moncton Center
08:25PM 42.4333 -66.0333 71° East 540 621 41,000  Level Moncton Center
08:26PM 42.4667 -65.8500 76° East 540 621 41,000  Level Moncton Center
08:27PM 42.5333 -65.6500 66° East 540 621 41,000  Level Moncton Center
08:28PM 42.5833 -65.4667 70° East 540 621 41,000  Level Moncton Center
08:29PM 42.6333 -65.2667 71° East 540 621 41,000  Level Moncton Center
08:30PM 42.6833 -65.0833 70° East 550 633 41,000  Level Moncton Center
08:31PM 42.7333 -64.8667 72° East 550 633 41,000  Level Moncton Center
08:32PM 42.7667 -64.6667 77° East 550 633 41,000  Level Moncton Center
08:33PM 42.8167 -64.4667 71° East 550 633 41,000  Level Moncton Center
08:34PM 42.8667 -64.2833 70° East 540 621 41,000  Level Moncton Center
08:35PM 42.9167 -64.0833 71° East 550 633 41,000  Level Moncton Center
08:36PM 42.9667 -63.9000 70° East 550 633 41,000  Level Moncton Center
08:37PM 43.0000 -63.6833 78° East 540 621 41,000  Level Moncton Center
08:38PM 43.0500 -63.5000 69° East 540 621 41,000  Level Moncton Center
08:39PM 43.1000 -63.3000 71° East 550 633 41,000  Level Moncton Center
08:40PM 43.1500 -63.1000 71° East 540 621 41,000  Level Moncton Center
08:41PM 43.1833 -62.8833 78° East 540 621 41,000  Level Moncton Center
08:42PM 43.2167 -62.7000 76° East 540 621 41,000  Level Moncton Center
08:43PM 43.3000 -62.3333 73° East 550 633 41,000  Level Gander Center
08:44PM 43.3167 -62.3000 55° Northeast 540 621 41,000  Level Moncton Center
08:44PM 43.3333 -62.2000 77° East 540 621 41,000  Level Gander Center
08:45PM 43.3667 -62.1167 61° Northeast 540 621 41,000  Level Moncton Center
08:46PM 43.4000 -61.9167 77° East 540 621 41,000  Level Moncton Center
08:47PM 43.4333 -61.7000 78° East 540 621 41,000  Level Moncton Center
08:48PM 43.4833 -61.5000 71° East 540 621 41,000  Level Moncton Center
08:49PM 43.5333 -61.3167 69° East 540 621 41,000  Level Moncton Center
08:49PM 43.5500 -61.2167 77° East 540 621 41,000  Level Gander Center
08:50PM 43.5667 -61.1000 79° East 550 633 41,000  Level Moncton Center
08:51PM 43.6167 -60.9167 69° East 550 633 41,000  Level Moncton Center
08:51PM 43.6333 -60.8000 79° East 550 633 41,000  Level Gander Center
08:52PM 43.6833 -60.6000 71° East 540 621 41,000  Level Gander Center
08:53PM 43.7000 -60.4000 83° East 550 633 41,000  Level Gander Center
08:54PM 43.7500 -60.1833 72° East 550 633 41,000  Level Gander Center
08:55PM 43.7667 -60.1000 74° East 550 633 41,000  Level Moncton Center
08:56PM 43.8167 -59.8833 72° East 560 644 41,000  Level Moncton Center
08:57PM 43.8500 -59.6667 78° East 550 633 41,000 60 Level Moncton Center
08:57PM 43.8667 -59.5667 77° East 550 633 41,100 300 Climbing Gander Center
08:58PM 43.8833 -59.4833 74° East 550 633 41,300 360 Climbing Moncton Center
08:58PM 43.9167 -59.3833 65° Northeast 540 621 41,500 600 Climbing Gander Center
08:59PM 43.9167 -59.2667 90° East 540 621 41,900 780 Climbing Moncton Center
09:00PM 43.9500 -59.0833 76° East 530 610 42,700 720 Climbing Moncton Center
09:00PM 43.9667 -58.9833 77° East 530 610 43,000 180 Climbing Gander Center
09:01PM 44.0167 -58.7833 71° East 530 610 43,000  Level Gander Center
09:02PM 44.0333 -58.6667 79° East 530 610 43,000  Level Moncton Center
09:02PM 44.0500 -58.6000 71° East 530 610 43,000  Level Gander Center
09:03PM 44.0833 -58.3833 78° East 540 621 43,000  Level Gander Center
09:04PM 44.1167 -58.1667 78° East 540 621 43,000  Level Gander Center
09:05PM 44.1333 -58.0500 79° East 530 610 43,000  Level Moncton Center
09:05PM 44.1667 -57.9667 61° Northeast 540 621 43,000  Level Gander Center
09:06PM 44.1833 -57.7667 83° East 540 621 43,000  Level Gander Center
09:07PM 44.2333 -57.5667 71° East 540 621 43,000  Level Gander Center
09:08PM 44.2500 -57.3667 83° East 540 621 43,000  Level Gander Center
09:09PM 44.2667 -57.2667 77° East 540 621 43,000  Level Moncton Center
09:10PM 44.3167 -57.0500 72° East 540 621 43,000  Level Moncton Center
09:10PM 44.3167 -56.9500 90° East 540 621 43,000  Level Gander Center
09:11PM 44.3500 -56.8667 61° Northeast 540 621 43,000  Level Moncton Center
09:12PM 44.3833 -56.6500 78° East 550 633 43,000  Level Moncton Center
09:12PM 44.3833 -56.5500 90° East 540 621 43,000  Level Gander Center
09:13PM 44.4333 -56.3333 72° East 540 621 43,000  Level Gander Center
09:14PM 44.4500 -56.2333 77° East 540 621 43,000  Level Moncton Center
09:15PM 44.4667 -56.0167 84° East 530 610 43,000  Level Moncton Center
09:16PM 44.4833 -55.8333 83° East 530 610 43,000  Level Moncton Center
09:16PM 44.5167 -55.7167 68° East 540 621 43,000  Level Gander Center
09:17PM 44.5000 -55.6167 103° East 540 621 43,000  Level Moncton Center
09:18PM 44.5333 -55.4000 78° East 540 621 43,000  Level Moncton Center
09:18PM 44.5500 -55.3167 74° East 540 621 43,000  Level Gander Center
09:19PM 44.5667 -55.1000 84° East 540 621 43,000  Level Gander Center
09:20PM 44.5833 -55.0000 77° East 540 621 43,000  Level Moncton Center
09:21PM 44.6000 -54.8000 83° East 540 621 43,000  Level Moncton Center
09:21PM 44.6000 -54.6833 90° East 540 621 43,000  Level Gander Center
09:22PM 44.6167 -54.5833 77° East 550 633 43,000  Level Moncton Center
09:22PM 44.6500 -54.4167 74° East 540 621 43,000  Level Gander Center
09:23PM 44.6333 -54.3667 115° Southeast 550 633 43,000  Level Moncton Center
09:24PM 44.6667 -54.1833 76° East 550 633 43,000  Level Moncton Center
09:24PM 44.6667 -54.0667 90° East 540 621 43,000  Level Gander Center
09:25PM 44.6833 -53.8500 84° East 540 621 43,000  Level Gander Center
09:25PM 44.7000 -53.8000 65° Northeast 550 633 43,000  Level Gander Center
09:26PM 44.7167 -53.5833 84° East 550 633 43,000  Level Gander Center
09:27PM 44.7167 -53.5333 90° East 540 621 43,000  Level Moncton Center
09:28PM 44.7333 -53.3333 83° East 540 621 43,000  Level Moncton Center
09:28PM 44.7500 -53.2333 77° East 550 633 43,000  Level Gander Center
09:29PM 44.7667 -53.1000 80° East 540 621 43,000  Level Moncton Center
09:30PM 44.7833 -52.9000 83° East 540 621 43,000  Level Moncton Center
09:30PM 44.7833 -52.7500 90° East 540 621 43,000  Level Gander Center
09:31PM 44.8000 -52.5833 82° East 550 633 43,000  Level Gander Center
09:32PM 44.8167 -52.3667 84° East 540 621 43,000  Level Gander Center
09:32PM 44.8167 -52.3167 90° East 550 633 43,000  Level Gander Center
09:33PM 44.8333 -52.2667 65° Northeast 550 633 43,000  Level Moncton Center
09:34PM 44.8333 -52.0667 90° East 550 633 43,000  Level Moncton Center
09:34PM 44.8500 -51.9667 77° East 540 621 43,000  Level Gander Center
09:35PM 44.8500 -51.7500 90° East 540 621 43,000  Level Gander Center
09:35PM 44.8667 -51.7000 65° Northeast 540 621 43,000  Level Gander Center
09:36PM 44.8667 -51.6167 90° East 540 621 43,000  Level Moncton Center
09:36PM 44.8833 -51.5333 74° East 540 621 43,000  Level Gander Center
09:37PM 44.8833 -51.3333 90° East 530 610 43,000  Level Gander Center
09:38PM 44.9167 -51.1167 78° East 550 633 43,000  Level Gander Center
09:39PM 44.9333 -50.9000 84° East 540 621 43,000  Level Gander Center
09:40PM 44.9500 -50.6833 84° East 540 621 43,000  Level Gander Center
09:41PM 44.9500 -50.4667 90° East 540 621 43,000  Level Gander Center
09:42PM 44.9667 -50.2833 83° East 540 621 43,000  Level Gander Center
09:43PM 44.9833 -50.0500 84° East 550 633 43,000  Level Gander Center
09:44PM 45.0000 -50.0000 70° East 509 586 43,000  Level ETMS Enhanced Traffic Management System
09:44PM 45.0000 -49.8500 70° East 540 621 43,000  Level Gander Center
09:45PM 45.0500 -49.6500 70° East 530 610 43,000  Level Gander Center
09:46PM 45.1000 -49.4667 69° East 530 610 43,000  Level Gander Center
09:47PM 45.1500 -49.2500 72° East 540 621 43,000  Level Gander Center
09:48PM 45.2000 -49.0333 72° East 540 621 43,000  Level Gander Center
09:48PM 45.2167 -49.0167 35° Northeast 540 621 43,000  Level Gander Center
09:49PM 45.2500 -48.8333 75° East 540 621 43,000  Level Gander Center
09:50PM 45.3000 -48.6333 70° East 540 621 43,000  Level Gander Center
09:50PM 45.3000 -48.6167 90° East 530 610 43,000  Level Gander Center
09:51PM 45.3500 -48.4167 70° East 520 598 43,000  Level Gander Center
09:52PM 45.3833 -48.2000 78° East 530 610 43,000  Level Gander Center
09:53PM 45.4500 -48.0000 65° Northeast 540 621 43,000  Level Gander Center
09:54PM 45.5000 -47.8000 70° East 530 610 43,000  Level Gander Center
09:55PM 45.5333 -47.6167 75° East 530 610 43,000  Level Gander Center
09:56PM 45.5667 -47.4667 72° East 540 621 43,000  Level Gander Center
09:58PM 45.6126 -47.2664 72° East  Level FlightAware Approximate
10:05PM 45.9050 -45.9440 72° East  Level FlightAware Approximate
10:06PM 45.9455 -45.7540 73° East  Level FlightAware Approximate
10:07PM 45.9857 -45.5636 73° East  Level FlightAware Approximate
10:08PM 46.0256 -45.3731 73° East  Level FlightAware Approximate
10:09PM 46.0652 -45.1822 73° East  Level FlightAware Approximate
10:10PM 46.1045 -44.9911 73° East  Level FlightAware Approximate
10:11PM 46.1434 -44.7996 74° East  Level FlightAware Approximate
10:12PM 46.1820 -44.6080 74° East  Level FlightAware Approximate
10:13PM 46.2203 -44.4160 74° East  Level FlightAware Approximate
10:14PM 46.2583 -44.2238 74° East  Level FlightAware Approximate
10:15PM 46.2960 -44.0313 74° East  Level FlightAware Approximate
10:16PM 46.3333 -43.8386 74° East  Level FlightAware Approximate
10:17PM 46.3703 -43.6456 74° East  Level FlightAware Approximate
10:18PM 46.4070 -43.4523 75° East  Level FlightAware Approximate
10:19PM 46.4433 -43.2588 75° East  Level FlightAware Approximate
10:20PM 46.4794 -43.0650 75° East  Level FlightAware Approximate
10:21PM 46.5150 -42.8710 75° East  Level FlightAware Approximate
10:22PM 46.5504 -42.6767 75° East  Level FlightAware Approximate
10:23PM 46.5855 -42.4822 75° East  Level FlightAware Approximate
10:24PM 46.6202 -42.2874 75° East  Level FlightAware Approximate
10:25PM 46.6545 -42.0923 76° East  Level FlightAware Approximate
10:26PM 46.6886 -41.8970 76° East  Level FlightAware Approximate
10:27PM 46.7223 -41.7015 76° East  Level FlightAware Approximate
10:28PM 46.7557 -41.5057 76° East  Level FlightAware Approximate
10:29PM 46.7887 -41.3097 76° East  Level FlightAware Approximate
10:30PM 46.8215 -41.1134 76° East  Level FlightAware Approximate
10:31PM 46.8538 -40.9170 76° East  Level FlightAware Approximate
10:32PM 46.8859 -40.7202 77° East  Level FlightAware Approximate
10:33PM 46.9176 -40.5233 77° East  Level FlightAware Approximate
10:34PM 46.9490 -40.3261 77° East  Level FlightAware Approximate
10:34PM 47.0000 -40.0000 70° East 523 602 43,000  Level ETMS Enhanced Traffic Management System
10:35PM 46.9800 -40.1286 77° East  Level FlightAware Approximate
10:36PM 47.0160 -39.9330 71° East  Level FlightAware Approximate
10:37PM 47.0616 -39.7414 71° East  Level FlightAware Approximate
10:38PM 47.1068 -39.5495 71° East  Level FlightAware Approximate
10:39PM 47.1516 -39.3573 71° East  Level FlightAware Approximate
10:40PM 47.3926 -38.3889 71° East 523 602 43,000  Level FlightAware Transoceanic
10:41PM 47.4401 -38.1859 71° East 523 602 43,000  Level FlightAware Transoceanic
10:42PM 47.4872 -37.9825 71° East 523 602 43,000  Level FlightAware Transoceanic
10:43PM 47.5340 -37.7787 71° East 523 602 43,000  Level FlightAware Transoceanic
10:44PM 47.5804 -37.5745 71° East 523 602 43,000  Level FlightAware Transoceanic
10:45PM 47.6264 -37.3700 72° East 523 602 43,000  Level FlightAware Transoceanic
10:46PM 47.6721 -37.1652 72° East 523 602 43,000  Level FlightAware Transoceanic
10:47PM 47.7174 -36.9599 72° East 523 602 43,000  Level FlightAware Transoceanic
10:48PM 47.7624 -36.7544 72° East 523 602 43,000  Level FlightAware Transoceanic
10:49PM 47.8069 -36.5484 72° East 523 602 43,000  Level FlightAware Transoceanic
10:50PM 47.8511 -36.3422 72° East 523 602 43,000  Level FlightAware Transoceanic
10:51PM 47.8950 -36.1355 73° East 523 602 43,000  Level FlightAware Transoceanic
10:52PM 47.9384 -35.9286 73° East 523 602 43,000  Level FlightAware Transoceanic
10:53PM 47.9815 -35.7212 73° East 523 602 43,000  Level FlightAware Transoceanic
10:54PM 48.0243 -35.5135 73° East 523 602 43,000  Level FlightAware Transoceanic
10:55PM 48.0666 -35.3055 73° East 523 602 43,000  Level FlightAware Transoceanic
10:56PM 48.1086 -35.0972 73° East 523 602 43,000  Level FlightAware Transoceanic
10:57PM 48.1502 -34.8885 73° East 523 602 43,000  Level FlightAware Transoceanic
10:58PM 48.1914 -34.6795 74° East 523 602 43,000  Level FlightAware Transoceanic
10:59PM 48.2322 -34.4701 74° East 523 602 43,000  Level FlightAware Transoceanic
11:00PM 48.2726 -34.2604 74° East 523 602 43,000  Level FlightAware Transoceanic
11:01PM 48.3127 -34.0504 74° East 523 602 43,000  Level FlightAware Transoceanic
11:02PM 48.3524 -33.8400 74° East 523 602 43,000  Level FlightAware Transoceanic
11:03PM 48.3917 -33.6293 74° East 523 602 43,000  Level FlightAware Transoceanic
11:04PM 48.4306 -33.4183 75° East 523 602 43,000  Level FlightAware Transoceanic
11:05PM 48.4692 -33.2070 75° East 523 602 43,000  Level FlightAware Transoceanic
11:06PM 48.5073 -32.9953 75° East 523 602 43,000  Level FlightAware Transoceanic
11:07PM 48.5450 -32.7833 75° East 523 602 43,000  Level FlightAware Transoceanic
11:08PM 48.5824 -32.5711 75° East 523 602 43,000  Level FlightAware Transoceanic
11:09PM 48.6194 -32.3585 75° East 523 602 43,000  Level FlightAware Transoceanic
11:10PM 48.6560 -32.1455 76° East 523 602 43,000  Level FlightAware Transoceanic
11:11PM 48.6922 -31.9323 76° East 523 602 43,000  Level FlightAware Transoceanic
11:12PM 48.7280 -31.7188 76° East 523 602 43,000  Level FlightAware Transoceanic
11:13PM 48.7634 -31.5050 76° East 523 602 43,000  Level FlightAware Transoceanic
11:14PM 48.7984 -31.2909 76° East 523 602 43,000  Level FlightAware Transoceanic
11:15PM 48.8330 -31.0765 76° East 523 602 43,000  Level FlightAware Transoceanic
11:16PM 48.8672 -30.8617 76° East 523 602 43,000  Level FlightAware Transoceanic
11:17PM 48.9010 -30.6467 77° East 523 602 43,000  Level FlightAware Transoceanic
11:18PM 48.9344 -30.4314 77° East 523 602 43,000  Level FlightAware Transoceanic
11:19PM 48.9674 -30.2159 77° East 523 602 43,000  Level FlightAware Transoceanic
11:20PM 48.9984 -30.0106 77° East  Level FlightAware Approximate
11:21PM 49.0291 -29.8050 77° East  Level FlightAware Approximate
11:21PM 49.0000 -30.0000 77° East 537 618 43,000  Level ETMS Enhanced Traffic Management System
11:22PM 49.0262 -29.8152 78° East  Level FlightAware Approximate
11:23PM 49.0552 -29.6089 78° East  Level FlightAware Approximate
11:24PM 49.0837 -29.4024 78° East  Level FlightAware Approximate
11:25PM 49.1119 -29.1957 78° East  Level FlightAware Approximate
11:26PM 49.1397 -28.9887 78° East  Level FlightAware Approximate
11:27PM 49.2163 -28.4389 79° East 537 618 43,000  Level FlightAware Transoceanic
11:28PM 49.2454 -28.2148 79° East 537 618 43,000  Level FlightAware Transoceanic
11:29PM 49.2742 -27.9904 79° East 537 618 43,000  Level FlightAware Transoceanic
11:30PM 49.3025 -27.7658 79° East 537 618 43,000  Level FlightAware Transoceanic
11:31PM 49.3303 -27.5409 79° East 537 618 43,000  Level FlightAware Transoceanic
11:32PM 49.3578 -27.3157 79° East 537 618 43,000  Level FlightAware Transoceanic
11:33PM 49.3848 -27.0903 80° East 537 618 43,000  Level FlightAware Transoceanic
11:34PM 49.4113 -26.8647 80° East 537 618 43,000  Level FlightAware Transoceanic
11:35PM 49.4374 -26.6388 80° East 537 618 43,000  Level FlightAware Transoceanic
11:36PM 49.4631 -26.4127 80° East 537 618 43,000  Level FlightAware Transoceanic
11:37PM 49.4883 -26.1864 80° East 537 618 43,000  Level FlightAware Transoceanic
11:38PM 49.5131 -25.9598 81° East 537 618 43,000  Level FlightAware Transoceanic
11:39PM 49.5375 -25.7330 81° East 537 618 43,000  Level FlightAware Transoceanic
11:40PM 49.5614 -25.5059 81° East 537 618 43,000  Level FlightAware Transoceanic
11:41PM 49.5848 -25.2787 81° East 537 618 43,000  Level FlightAware Transoceanic
11:42PM 49.6078 -25.0512 81° East 537 618 43,000  Level FlightAware Transoceanic
11:43PM 49.6304 -24.8235 81° East 537 618 43,000  Level FlightAware Transoceanic
11:44PM 49.6525 -24.5956 82° East 537 618 43,000  Level FlightAware Transoceanic
11:45PM 49.6742 -24.3675 82° East 537 618 43,000  Level FlightAware Transoceanic
11:46PM 49.6954 -24.1392 82° East 537 618 43,000  Level FlightAware Transoceanic
11:47PM 49.7162 -23.9107 82° East 537 618 43,000  Level FlightAware Transoceanic
11:48PM 49.7365 -23.6821 82° East 537 618 43,000  Level FlightAware Transoceanic
11:49PM 49.7564 -23.4532 82° East 537 618 43,000  Level FlightAware Transoceanic
11:50PM 49.7758 -23.2241 83° East 537 618 43,000  Level FlightAware Transoceanic
11:51PM 49.7948 -22.9949 83° East 537 618 43,000  Level FlightAware Transoceanic
11:52PM 49.8133 -22.7654 83° East 537 618 43,000  Level FlightAware Transoceanic
11:53PM 49.8314 -22.5359 83° East 537 618 43,000  Level FlightAware Transoceanic
11:54PM 49.8490 -22.3061 83° East 537 618 43,000  Level FlightAware Transoceanic
11:55PM 49.8661 -22.0762 83° East 537 618 43,000  Level FlightAware Transoceanic
11:56PM 49.8828 -21.8461 84° East 537 618 43,000  Level FlightAware Transoceanic
11:57PM 49.8991 -21.6158 84° East 537 618 43,000  Level FlightAware Transoceanic
11:58PM 49.9149 -21.3854 84° East 537 618 43,000  Level FlightAware Transoceanic
11:59PM 49.9302 -21.1549 84° East 537 618 43,000  Level FlightAware Transoceanic
12:00AM 49.9451 -20.9242 84° East 537 618 43,000  Level FlightAware Transoceanic
12:01AM 49.9595 -20.6933 85° East 537 618 43,000  Level FlightAware Transoceanic
12:02AM 49.9735 -20.4623 85° East 537 618 43,000  Level FlightAware Transoceanic
12:03AM 49.9870 -20.2312 85° East 537 618 43,000  Level FlightAware Transoceanic
12:04AM 49.9991 -20.0170 85° East  Level FlightAware Approximate
12:05AM 50.0107 -19.8026 85° East  Level FlightAware Approximate
12:06AM 50.0092 -19.8195 85° East  Level FlightAware Approximate
12:07AM 50.0197 -19.6050 86° East  Level FlightAware Approximate
12:08AM 50.0299 -19.3904 86° East  Level FlightAware Approximate
12:09AM 50.0396 -19.1757 86° East  Level FlightAware Approximate
12:10AM 50.0490 -18.9609 86° East  Level FlightAware Approximate
12:11AM 50.0579 -18.7460 86° East  Level FlightAware Approximate
12:12AM 50.0665 -18.5310 86° East  Level FlightAware Approximate
12:13AM 50.0746 -18.3160 87° East  Level FlightAware Approximate
12:14AM 50.0824 -18.1009 87° East  Level FlightAware Approximate
12:15AM 50.0898 -17.8857 87° East  Level FlightAware Approximate
12:16AM 50.0967 -17.6705 87° East  Level FlightAware Approximate
12:17AM 50.1033 -17.4552 87° East  Level FlightAware Approximate
12:18AM 50.1095 -17.2398 87° East  Level FlightAware Approximate
12:19AM 50.1152 -17.0244 88° East  Level FlightAware Approximate
12:20AM 50.1206 -16.8089 88° East  Level FlightAware Approximate
12:21AM 50.1256 -16.5934 88° East  Level FlightAware Approximate
12:22AM 50.1302 -16.3779 88° East  Level FlightAware Approximate
12:23AM 50.1344 -16.1623 88° East  Level FlightAware Approximate
12:24AM 50.1381 -15.9466 88° East  Level FlightAware Approximate
12:25AM 50.1415 -15.7310 89° East  Level FlightAware Approximate
12:26AM 50.1445 -15.5153 89° East  Level FlightAware Approximate
12:27AM 50.1471 -15.2996 89° East  Level FlightAware Approximate
12:28AM 50.1493 -15.0838 89° East  Level FlightAware Approximate
12:29AM 50.1511 -14.8681 89° East  Level FlightAware Approximate
12:30AM 50.1525 -14.6523 89° East  Level FlightAware Approximate
12:31AM 50.1535 -14.4366 89° East  Level FlightAware Approximate
12:32AM 50.1542 -14.2208 90° East  Level FlightAware Approximate
12:33AM 50.1544 -14.0050 90° East  Level FlightAware Approximate
12:34AM 50.1542 -13.7892 90° East  Level FlightAware Approximate
12:35AM 50.1536 -13.5734 90° East  Level FlightAware Approximate
12:36AM 50.1527 -13.3576 90° East  Level FlightAware Approximate
12:37AM 50.1513 -13.1418 90° East  Level FlightAware Approximate
12:38AM 50.1495 -12.9261 91° East  Level FlightAware Approximate
12:39AM 50.1474 -12.7104 91° East  Level FlightAware Approximate
12:40AM 50.1448 -12.4946 91° East  Level FlightAware Approximate
12:41AM 50.1418 -12.2789 91° East  Level FlightAware Approximate
12:42AM 50.1385 -12.0633 91° East  Level FlightAware Approximate
12:43AM 50.1347 -11.8476 91° East  Level FlightAware Approximate
12:44AM 50.1305 -11.6321 92° East  Level FlightAware Approximate
12:45AM 50.1259 -11.4165 92° East  Level FlightAware Approximate
12:46AM 50.1210 -11.2010 92° East  Level FlightAware Approximate
12:47AM 50.1156 -10.9855 92° East  Level FlightAware Approximate
12:48AM 50.1099 -10.7701 92° East  Level FlightAware Approximate
12:49AM 50.1037 -10.5548 92° East  Level FlightAware Approximate
12:50AM 50.0971 -10.3395 93° East  Level FlightAware Approximate
12:51AM 50.0902 -10.1242 93° East  Level FlightAware Approximate
12:52AM 50.0828 -9.9090 93° East  Level FlightAware Approximate
12:53AM 50.0751 -9.6939 93° East  Level FlightAware Approximate
12:54AM 50.0669 -9.4789 93° East  Level FlightAware Approximate
12:54AM 50.3534 -8.9756 93° East 480 552 45,000  Level FlightAware UK
12:54AM 50.3382 -8.8694 103° East 480 552 45,000  Level FlightAware UK
12:55AM 50.3232 -8.7627 102° East 486 559 45,000  Level FlightAware UK
12:55AM 50.3078 -8.6559 103° East 486 559 45,000  Level FlightAware UK
12:56AM 50.2922 -8.5492 103° East 482 555 45,000  Level FlightAware UK
12:56AM 50.2765 -8.4428 103° East 482 555 45,000  Level FlightAware UK
12:57AM 50.2607 -8.3365 103° East 482 555 45,000  Level FlightAware UK
12:57AM 50.2451 -8.2301 103° East 486 559 45,000  Level FlightAware UK
12:58AM 50.2294 -8.1232 103° East 486 559 45,000  Level FlightAware UK
12:58AM 50.2132 -8.0157 103° East 484 557 45,000  Level FlightAware UK
12:59AM 50.1969 -7.9093 103° East 480 552 45,000  Level FlightAware UK
12:59AM 50.1805 -7.8031 103° East 482 555 45,000  Level FlightAware UK
01:00AM 50.1645 -7.6967 103° East 484 557 45,000  Level FlightAware UK
01:00AM 50.1480 -7.5900 104° East 484 557 45,000  Level FlightAware UK
01:01AM 50.1313 -7.4825 104° East 484 557 45,000  Level FlightAware UK
01:01AM 50.1145 -7.3757 104° East 486 559 45,000  Level FlightAware UK
01:02AM 50.0976 -7.2692 104° East 484 557 45,000  Level FlightAware UK
01:02AM 50.0808 -7.1634 104° East 484 557 45,000  Level FlightAware UK
01:03AM 50.0637 -7.0588 104° East 480 552 45,000  Level FlightAware UK
01:03AM 50.0469 -6.9550 104° East 480 552 45,000  Level FlightAware UK
01:04AM 50.0304 -6.8511 104° East 480 552 45,000  Level FlightAware UK
01:04AM 50.0137 -6.7474 104° East 482 555 45,000  Level FlightAware UK
01:05AM 49.9969 -6.6433 104° East 482 555 45,000  Level FlightAware UK
01:05AM 49.9797 -6.5391 104° East 482 555 45,000  Level FlightAware UK
01:06AM 49.9622 -6.4346 105° East 484 557 45,000  Level FlightAware UK
01:06AM 49.9450 -6.3290 104° East 480 552 45,000  Level FlightAware UK
01:07AM 49.9275 -6.2243 104° East 482 555 45,000  Level FlightAware UK
01:07AM 49.9099 -6.1197 105° East 484 557 45,000  Level FlightAware UK
01:08AM 49.8921 -6.0151 105° East 482 555 45,000  Level FlightAware UK
01:08AM 49.8741 -5.9108 105° East 480 552 45,000  Level FlightAware UK
01:09AM 49.8561 -5.8066 105° East 480 552 45,000  Level FlightAware UK
01:09AM 49.8381 -5.7013 105° East 482 555 45,000  Level FlightAware UK
01:10AM 49.8199 -5.5965 105° East 482 555 45,000  Level FlightAware UK
01:10AM 49.8013 -5.4911 105° East 482 555 45,000  Level FlightAware UK
01:11AM 49.7792 -5.3659 105° East 484 557 45,000  Level FlightAware UK
01:12AM 49.7607 -5.2611 105° East 482 555 45,000  Level FlightAware UK
01:12AM 49.7450 -5.1556 103° East 480 552 45,000  Level FlightAware UK
01:13AM 49.7317 -5.0285 99° East 478 550 45,000  Level FlightAware UK
01:13AM 49.7194 -4.9228 100° East 476 548 45,000  Level FlightAware UK
01:14AM 49.7070 -4.8158 100° East 478 550 45,000  Level FlightAware UK
01:14AM 49.6944 -4.7083 100° East 482 555 45,000  Level FlightAware UK
01:15AM 49.6817 -4.6008 100° East 484 557 45,000  Level FlightAware UK
01:15AM 49.6688 -4.4929 100° East 482 555 45,000  Level FlightAware UK
01:16AM 49.6558 -4.3848 100° East 480 552 45,000  Level FlightAware UK
01:16AM 49.6429 -4.2778 101° East 480 552 45,000  Level FlightAware UK
01:17AM 49.6299 -4.1708 101° East 480 552 45,000  Level FlightAware UK
01:17AM 49.6165 -4.0629 101° East 484 557 45,000  Level FlightAware UK
01:18AM 49.6005 -3.9350 101° East 484 557 45,000  Level FlightAware UK
01:18AM 49.5870 -3.8275 101° East 478 550 45,000  Level FlightAware UK
01:19AM 49.5735 -3.7213 101° East 478 550 45,000  Level FlightAware UK
01:19AM 49.5602 -3.6153 101° East 482 555 45,000  Level FlightAware UK
01:20AM 49.5466 -3.5093 101° East 482 555 45,000  Level FlightAware UK
01:20AM 49.5328 -3.4032 101° East 478 550 45,000  Level FlightAware UK
01:21AM 49.5188 -3.2963 101° East 478 550 45,000  Level FlightAware UK
01:21AM 49.5020 -3.1687 101° East 480 552 45,000  Level FlightAware UK
01:22AM 49.4877 -3.0617 102° East 482 555 45,000  Level FlightAware UK
01:22AM 49.4732 -2.9537 102° East 482 555 45,000  Level FlightAware UK
01:23AM 49.4588 -2.8466 102° East 480 552 45,000  Level FlightAware UK
01:23AM 49.4442 -2.7393 102° East 478 550 45,000  Level FlightAware UK
01:24AM 49.4270 -2.6126 102° East 482 555 45,000  Level FlightAware UK
01:24AM 49.4123 -2.5062 102° East 480 552 45,000  Level FlightAware UK
01:25AM 49.3974 -2.3992 102° East 482 555 45,000  Level FlightAware UK
01:25AM 49.3826 -2.2930 102° East 480 552 45,000  Level FlightAware UK
01:26AM 49.3675 -2.1862 102° East 480 552 45,000  Level FlightAware UK
01:26AM 49.3523 -2.0787 102° East 480 552 45,000  Level FlightAware UK
01:27AM 49.3338 -1.9504 102° East 482 555 45,000  Level FlightAware UK
01:28AM 49.3187 -1.8445 102° East 480 552 45,000  Level FlightAware UK
01:28AM 49.3031 -1.7387 103° East 480 552 45,000  Level FlightAware UK
01:29AM 49.2879 -1.6334 102° East 478 550 45,000  Level FlightAware UK
01:29AM 49.2723 -1.5276 103° East 480 552 45,000  Level FlightAware UK
01:30AM 49.2568 -1.4224 103° East 482 555 45,000  Level FlightAware UK
01:30AM 49.2378 -1.2960 103° East 480 552 45,000  Level FlightAware UK
01:31AM 49.2219 -1.1892 103° East 478 550 45,000  Level FlightAware UK
01:31AM 49.2059 -1.0827 103° East 482 555 45,000  Level FlightAware UK
01:32AM 49.1893 -0.9754 103° East 486 559 45,000  Level FlightAware UK
01:32AM 49.1727 -0.8677 103° East 484 557 45,000  Level FlightAware UK
01:33AM 49.1561 -0.7604 103° East 482 555 45,000  Level FlightAware UK
01:33AM 49.1365 -0.6330 103° East 482 555 45,000  Level FlightAware UK
01:34AM 49.1198 -0.5272 103° East 484 557 45,000  Level FlightAware UK
01:34AM 49.1029 -0.4210 104° East 482 555 45,000  Level FlightAware UK
01:35AM 49.0862 -0.3159 104° East 482 555 45,000  Level FlightAware UK
01:35AM 49.0694 -0.2107 104° East 482 555 45,000  Level FlightAware UK
01:36AM 49.0529 -0.1069 104° East 482 555 45,000  Level FlightAware UK
01:36AM 49.0361 -0.0036 104° East 480 552 45,000  Level FlightAware UK
01:37AM 49.0191 0.1006 104° East 482 555 45,000  Level FlightAware UK
01:37AM 49.0021 0.2038 104° East 482 555 45,000  Level FlightAware UK
01:38AM 48.9851 0.3071 104° East 480 552 45,000  Level FlightAware UK
01:38AM 48.9680 0.4111 104° East 486 559 45,000  Level FlightAware UK
01:39AM 48.9472 0.5347 104° East 482 555 45,000  Level FlightAware UK
01:39AM 48.9298 0.6379 104° East 480 552 45,000  Level FlightAware UK
01:40AM 48.9056 0.7808 104° East 482 555 45,000  Level FlightAware UK
01:41AM 48.8882 0.8835 104° East 480 552 45,000  Level FlightAware UK
01:41AM 48.8706 0.9854 105° East 480 552 45,000  Level FlightAware UK
01:42AM 48.8530 1.0870 105° East 478 550 45,000  Level FlightAware UK
01:42AM 48.8353 1.1888 105° East 480 552 45,000  Level FlightAware UK
01:43AM 48.8174 1.2908 105° East 482 555 45,000  Level FlightAware UK
01:43AM 48.7995 1.3934 105° East 484 557 45,000  Level FlightAware UK
01:44AM 48.7812 1.4968 105° East 484 557 45,000  Level FlightAware UK
01:44AM 48.7559 1.6397 105° East 478 550 45,000  Level FlightAware UK
01:45AM 48.7379 1.7401 105° East 476 548 45,000  Level FlightAware UK
01:45AM 48.7162 1.8612 105° East 480 552 45,000  Level FlightAware UK
01:46AM 48.6975 1.9635 105° East 480 552 45,000  Level FlightAware UK
01:46AM 48.6790 2.0655 105° East 482 555 45,000 -600 Level FlightAware UK
01:47AM 48.6567 2.1881 105° East 476 548 44,400 -1,020 Descending FlightAware UK
01:49AM 48.6033 2.4877 105° East  Level FlightAware Approximate
01:56AM 48.3408 3.8928 105° East  Level FlightAware Approximate
01:57AM 48.3017 4.0916 107° East  Level FlightAware Approximate
01:58AM 48.2620 4.2906 107° East  Level FlightAware Approximate
01:59AM 48.2228 4.4897 106° East  Level FlightAware Approximate
02:00AM 48.1853 4.6894 106° East  Level FlightAware Approximate
02:01AM 48.1427 4.8865 107° East  Level FlightAware Approximate
02:02AM 48.1030 5.0849 107° East  Level FlightAware Approximate
02:03AM 48.0635 5.2832 107° East  Level FlightAware Approximate
02:04AM 48.0238 5.4813 107° East  Level FlightAware Approximate
02:05AM 47.9830 5.6788 107° East  Level FlightAware Approximate
02:06AM 47.9416 5.8758 107° East  Level FlightAware Approximate
02:07AM 47.9000 6.0725 107° East  Level FlightAware Approximate
02:08AM 47.8580 6.2689 108° East  Level FlightAware Approximate
02:09AM 47.8170 6.4656 106° East  Level FlightAware Approximate
02:10AM 47.7769 6.6626 108° East  Level FlightAware Approximate
02:11AM 47.7335 6.8579 108° East  Level FlightAware Approximate
02:12AM 47.6910 7.0534 108° East  Level FlightAware Approximate
02:13AM 47.6440 7.2462 113° Southeast  Level FlightAware Approximate
02:14AM 47.5947 7.4373 102° East  Level FlightAware Approximate
02:15AM 47.5833 7.5167 102° East  Level FlightAware Approximate
02:16AM 47.5896 7.5299 102° East  Level Estimated
02:17AM 47.5896 7.5299 102° East  Level Estimated
02:18AM 47.5896 7.5299 102° East  Level Estimated
02:19AM 47.5896 7.5299 102° East  Level Estimated
02:20AM 47.5896 7.5299 102° East  Level Estimated
02:21AM 47.5896 7.5299 102° East  Level Estimated
02:22AM 47.5896 7.5299 102° East  Level Estimated
02:23AM 47.5896 7.5299 102° East  Level Estimated
02:24AM 47.5896 7.5299 102° East  Level Estimated
02:25AM 47.5896 7.5299 102° East  Level Estimated
02:26AM 47.5896 7.5299 102° East  Level Estimated
02:27AM 47.5896 7.5299 102° East  Level Estimated
02:28AM 47.5896 7.5299 102° East  Level Estimated
02:29AM 47.5896 7.5299 102° East  Level Estimated
02:30AM 47.5896 7.5299 102° East  Level Estimated
02:31AM 47.5896 7.5299 102° East  Level Estimated
02:32AM 47.5896 7.5299 102° East  Level Estimated
02:33AM 47.5896 7.5299 102° East  Level Estimated
02:34AM 47.5896 7.5299 102° East  Level Estimated
02:35AM 47.5896 7.5299 102° East  Level Estimated
02:36AM 47.5896 7.5299 102° East  Level Estimated
02:37AM 47.5896 7.5299 102° East  Level Estimated
02:38AM 47.5896 7.5299 102° East  Level Estimated
02:39AM 47.5896 7.5299 102° East  Level Estimated
02:40AM 47.5896 7.5299 102° East  Level Estimated
02:41AM 47.5896 7.5299 102° East  Level Estimated
02:42AM 47.5896 7.5299 102° East  Level Estimated
02:43AM 47.5896 7.5299 102° East  Level Estimated
02:44AM 47.5896 7.5299 102° East  Level Estimated